Etusivu
METAR-TAF:

METAR-TAF

Lentoasemat :

Calgary-Springbank, Alberta, Kanada

Leveyspiiri: 51-06N, Pituuspiiri: 114-22W, korkeus merenpinnasta: 1200 m

Tämänhetkinen sää

Tämä raportti tehtiin 47 minuuttia sitten, kello 08.00 UTC
Tuuli 4 kn luoteesta
Lämpötila -2°C
Kosteus 54%
Ilmanpaine 1024 hPa
Näkyvyys: 14.5 km
Pilvistä 6500 ft:n korkeudessa

METAR: CYBW 250800Z AUTO 31004KT 9SM OVC065 M02/M10 A3023 RMK SLP269

Aika: 02:47 (08:47 UTC)

Sääennuste

Tämä raportti tehtiin 9 tuntia ja 7 minuuttia sitten, kello 23.40 UTC
Ennuste voimassa 25. päivästä klo 00 UTC - 25. päivään klo 04 UTC
Tuuli 15 kn pohjoisesta puuskistuen 25 kn:hen
Näkyvyys: 10 km
Muutamia pilviä 10000 ft:n korkeudessa
Muutamia pilviä 20000 ft:n korkeudessa
Tulossa
25. päivästä klo 02 UTC - 25. päivään klo 04 UTC
Tuuli 10 kn pohjoisesta

TAF: CYBW 242340Z 2500/2504 01015G25KT P6SM FEW100 FEW200 BECMG 2502/2504 36010KT RMK FCST BASED ON AUTO OBS. NXT FCST WILL BE ISSUED AT 251145Z

Säähavainnot ja -ennusteet yli 4000 lentoasemalta (METAR- ja TAF-raportit).

Käytössä olevat sääasemat on merkitty karttaan keltaisilla ja punaisilla pisteillä.

Aseta hiiri pisteen päälle nähdäksesi sääaseman nimen.

Klikkaa sitten nähdäksesi säähavainnot ja -ennusteet.

Kartan vaihtaminen: klikkaa mustalla rastilla varustettuja vihreitä pisteitä, niin voit zoomata sisään; viivalla varustettua vihreää pistettä, niin voit zoomata ulos tai vihreitä nuolia, niin pääset viereisille kartoille.


METAR-TAF: